createdAt,value
2018-09-11T00:00:09.093Z,56.50
2018-09-11T00:02:43.491Z,56.50
2018-09-11T00:05:17.922Z,56.60
2018-09-11T00:07:52.321Z,56.70
2018-09-11T00:10:26.761Z,56.80
2018-09-11T00:13:01.158Z,56.80
2018-09-11T00:15:35.534Z,56.80
2018-09-11T00:18:09.903Z,57.10
2018-09-11T00:20:44.342Z,57.10
2018-09-11T00:23:18.732Z,57.20
2018-09-11T00:25:53.107Z,57.30
2018-09-11T00:28:27.487Z,57.30
2018-09-11T00:31:01.960Z,57.30
2018-09-11T00:33:36.396Z,57.40
2018-09-11T00:36:10.768Z,57.60
2018-09-11T00:38:45.121Z,57.60
2018-09-11T00:41:19.492Z,57.60
2018-09-11T00:43:53.963Z,57.80
2018-09-11T00:46:28.344Z,57.90
2018-09-11T00:49:02.787Z,57.90
2018-09-11T00:51:37.162Z,58.00
2018-09-11T00:54:11.624Z,58.00
2018-09-11T00:56:45.964Z,58.10
2018-09-11T00:59:20.410Z,58.30
2018-09-11T01:01:54.953Z,58.30
2018-09-11T01:04:29.414Z,58.20
2018-09-11T01:07:03.918Z,58.20
2018-09-11T01:09:38.261Z,58.30
2018-09-11T01:12:12.697Z,58.50
2018-09-11T01:14:47.033Z,58.40
2018-09-11T01:17:21.398Z,58.30
2018-09-11T01:19:55.745Z,58.40
2018-09-11T01:22:30.143Z,58.40
2018-09-11T01:25:04.614Z,58.40
2018-09-11T01:27:39.044Z,58.40
2018-09-11T01:30:17.603Z,58.40
2018-09-11T01:32:52.674Z,58.20
2018-09-11T01:35:27.092Z,58.20
2018-09-11T01:38:01.542Z,58.30
2018-09-11T01:40:35.981Z,58.20
2018-09-11T01:43:10.426Z,58.10
2018-09-11T01:45:44.873Z,58.20
2018-09-11T01:48:19.249Z,58.20
2018-09-11T01:50:53.671Z,58.40
2018-09-11T01:53:28.095Z,58.30
2018-09-11T01:56:02.663Z,58.20
2018-09-11T01:58:37.070Z,58.30
2018-09-11T02:01:11.434Z,58.20
2018-09-11T02:03:45.982Z,58.10
2018-09-11T02:06:20.378Z,58.10
2018-09-11T02:08:54.806Z,58.10
2018-09-11T02:11:29.255Z,58.20
2018-09-11T02:14:03.959Z,58.00
2018-09-11T02:16:38.380Z,58.00
2018-09-11T02:19:12.778Z,58.00
2018-09-11T02:21:47.357Z,58.10
2018-09-11T02:24:21.912Z,58.00
2018-09-11T02:26:56.338Z,58.00
2018-09-11T02:29:30.773Z,58.10
2018-09-11T02:32:05.245Z,58.00
2018-09-11T02:34:39.681Z,58.00
2018-09-11T02:37:14.018Z,58.00
2018-09-11T02:39:48.412Z,58.10
2018-09-11T02:42:22.847Z,58.10
2018-09-11T02:44:57.225Z,58.10
2018-09-11T02:47:31.665Z,58.20
2018-09-11T02:50:06.697Z,58.30
2018-09-11T02:52:41.151Z,58.30
2018-09-11T02:55:15.587Z,58.30
2018-09-11T02:57:49.970Z,58.40
2018-09-11T03:00:24.397Z,58.40
2018-09-11T03:03:01.879Z,58.50
2018-09-11T03:05:36.973Z,58.40
2018-09-11T03:08:11.375Z,58.40
2018-09-11T03:10:46.851Z,58.50
2018-09-11T03:13:22.335Z,58.50
2018-09-11T03:15:56.794Z,58.50
2018-09-11T03:18:32.030Z,58.50
2018-09-11T03:21:07.399Z,58.40
2018-09-11T03:23:41.855Z,58.50
2018-09-11T03:26:16.789Z,58.50
2018-09-11T03:28:52.507Z,58.50
2018-09-11T03:31:27.441Z,58.50
2018-09-11T03:34:02.032Z,58.60
2018-09-11T03:36:38.117Z,58.60
2018-09-11T03:39:13.546Z,58.70
2018-09-11T03:41:47.930Z,58.70
2018-09-11T03:44:22.670Z,58.70
2018-09-11T03:46:57.859Z,58.80
2018-09-11T03:49:33.298Z,58.90
2018-09-11T03:52:09.703Z,59.00
2018-09-11T03:54:44.166Z,59.00
2018-09-11T03:57:18.735Z,59.00
2018-09-11T03:59:53.757Z,58.90
2018-09-11T04:02:28.214Z,58.90
2018-09-11T04:05:03.946Z,59.00
2018-09-11T04:07:38.446Z,59.10
2018-09-11T04:10:14.285Z,59.70
2018-09-11T04:12:49.629Z,59.20
2018-09-11T04:15:24.791Z,59.20
2018-09-11T04:18:01.025Z,59.50
2018-09-11T04:20:35.514Z,59.20
2018-09-11T04:23:11.528Z,59.20
2018-09-11T04:25:46.701Z,59.30
2018-09-11T04:28:21.590Z,59.30
2018-09-11T04:30:55.984Z,59.30
2018-09-11T04:33:31.312Z,59.90
2018-09-11T04:36:07.255Z,59.40
2018-09-11T04:38:42.392Z,59.40
2018-09-11T04:41:17.690Z,59.50
2018-09-11T04:43:55.070Z,59.60
2018-09-11T04:46:30.606Z,59.60
2018-09-11T04:49:05.028Z,59.70
2018-09-11T04:51:39.419Z,59.80
2018-09-11T04:54:13.898Z,59.80
2018-09-11T04:56:48.318Z,59.90
2018-09-11T04:59:22.873Z,60.00
2018-09-11T05:01:57.237Z,60.10
2018-09-11T05:04:31.600Z,61.00
2018-09-11T05:07:06.125Z,60.40
2018-09-11T05:09:40.593Z,60.60
2018-09-11T05:12:15.696Z,60.90
2018-09-11T05:14:50.159Z,61.40
2018-09-11T05:21:16.138Z,60.90
2018-09-11T05:23:50.548Z,60.90
2018-09-11T05:26:24.974Z,61.20
2018-09-11T05:28:59.342Z,61.30
2018-09-11T05:31:34.006Z,61.30
2018-09-11T05:34:08.405Z,61.30
2018-09-11T05:36:43.011Z,61.30
2018-09-11T05:39:17.871Z,61.50
2018-09-11T05:41:52.282Z,61.50
2018-09-11T05:44:26.702Z,61.60
2018-09-11T05:47:01.300Z,61.60
2018-09-11T05:49:35.751Z,61.70
2018-09-11T05:52:10.114Z,61.80
2018-09-11T05:54:44.627Z,61.80
2018-09-11T05:57:19.099Z,61.90
2018-09-11T05:59:53.477Z,61.90
2018-09-11T06:02:27.964Z,61.80
2018-09-11T06:05:02.370Z,61.90
2018-09-11T06:07:36.684Z,61.70
2018-09-11T06:10:11.059Z,61.60
2018-09-11T06:12:46.318Z,61.60
2018-09-11T06:15:20.846Z,61.50
2018-09-11T06:17:55.437Z,61.60
2018-09-11T06:20:29.769Z,61.70
2018-09-11T06:23:04.175Z,61.60
2018-09-11T06:25:38.592Z,62.30
2018-09-11T06:28:12.931Z,61.70
2018-09-11T06:30:47.274Z,62.00
2018-09-11T06:33:21.685Z,62.40
2018-09-11T06:35:56.065Z,62.60
2018-09-11T06:38:30.499Z,62.70
2018-09-11T06:41:04.913Z,62.80
2018-09-11T06:43:39.358Z,63.10
2018-09-11T06:46:13.749Z,63.40
2018-09-11T06:48:48.243Z,63.60
2018-09-11T06:51:22.678Z,63.50
2018-09-11T06:53:57.038Z,63.40
2018-09-11T06:56:31.387Z,63.10
2018-09-11T06:59:06.251Z,62.70
2018-09-11T07:01:40.535Z,62.30
2018-09-11T07:04:15.133Z,62.10
2018-09-11T07:06:49.506Z,61.90
2018-09-11T07:09:23.854Z,61.60
2018-09-11T07:11:58.388Z,61.50
2018-09-11T07:14:33.106Z,61.50
2018-09-11T07:17:07.500Z,61.70
2018-09-11T07:19:41.902Z,61.20
2018-09-11T07:22:16.505Z,61.00
2018-09-11T07:24:50.942Z,60.90
2018-09-11T07:27:25.290Z,60.80
2018-09-11T07:29:59.659Z,60.80
2018-09-11T07:32:34.094Z,60.80
2018-09-11T07:35:08.503Z,60.90
2018-09-11T07:37:42.890Z,60.90
2018-09-11T07:40:17.358Z,61.10
2018-09-11T07:42:51.742Z,61.00
2018-09-11T07:45:26.121Z,60.50
2018-09-11T07:48:00.631Z,59.40
2018-09-11T07:50:35.018Z,59.20
2018-09-11T07:53:09.526Z,59.10
2018-09-11T07:55:43.978Z,58.50
2018-09-11T07:58:18.398Z,58.80
2018-09-11T08:00:53.582Z,58.80
2018-09-11T08:03:28.045Z,58.50
2018-09-11T08:06:02.529Z,58.30
2018-09-11T08:08:36.903Z,58.10
2018-09-11T08:11:11.337Z,57.50
2018-09-11T08:13:45.644Z,57.90
2018-09-11T08:16:20.075Z,57.80
2018-09-11T08:18:54.453Z,57.30
2018-09-11T08:21:28.777Z,57.30
2018-09-11T08:24:03.241Z,57.30
2018-09-11T08:26:37.593Z,56.70
2018-09-11T08:29:12.005Z,56.70
2018-09-11T08:31:46.324Z,56.40
2018-09-11T08:34:20.678Z,56.50
2018-09-11T08:36:55.322Z,56.20
2018-09-11T08:39:29.679Z,56.30
2018-09-11T08:42:04.034Z,56.00
2018-09-11T08:44:38.494Z,55.30
2018-09-11T08:47:12.841Z,54.80
2018-09-11T08:49:47.264Z,54.50
2018-09-11T08:52:21.668Z,54.20
2018-09-11T08:54:56.050Z,53.80
2018-09-11T08:57:30.869Z,53.50
2018-09-11T09:00:05.638Z,53.10
2018-09-11T09:02:40.014Z,53.30
2018-09-11T09:05:14.458Z,52.80
2018-09-11T09:07:48.845Z,52.50
2018-09-11T09:10:33.474Z,52.50
2018-09-11T09:13:09.824Z,52.10
2018-09-11T09:15:44.251Z,52.40
2018-09-11T09:18:18.587Z,51.20
2018-09-11T09:20:53.007Z,51.00
2018-09-11T09:23:27.409Z,50.90
2018-09-11T09:26:01.759Z,50.60
2018-09-11T09:28:36.202Z,50.20
2018-09-11T09:31:10.618Z,49.60
2018-09-11T09:33:45.667Z,48.40
2018-09-11T09:36:20.131Z,47.00
2018-09-11T09:38:54.527Z,46.70
2018-09-11T09:41:51.295Z,47.40
2018-09-11T09:44:35.938Z,46.30
2018-09-11T09:47:11.098Z,46.00
2018-09-11T09:49:45.471Z,45.50
2018-09-11T09:52:19.844Z,45.90
2018-09-11T09:54:54.306Z,46.20
2018-09-11T09:57:28.691Z,46.10
2018-09-11T10:00:03.092Z,46.20
2018-09-11T10:02:37.472Z,45.10
2018-09-11T10:05:13.971Z,44.70
2018-09-11T10:07:48.352Z,44.90
2018-09-11T10:10:22.878Z,44.50
2018-09-11T10:12:57.772Z,44.80
2018-09-11T10:15:33.197Z,44.90
2018-09-11T10:18:09.281Z,44.70
2018-09-11T10:20:45.807Z,44.40
2018-09-11T10:23:21.030Z,43.60
2018-09-11T10:26:00.384Z,43.60
2018-09-11T10:28:43.278Z,43.90
2018-09-11T10:31:23.615Z,44.10
2018-09-11T10:34:15.941Z,44.50
2018-09-11T10:36:51.197Z,44.80
2018-09-11T10:39:31.732Z,44.20
2018-09-11T10:42:06.151Z,43.80
2018-09-11T10:44:40.531Z,43.80
2018-09-11T10:47:15.289Z,43.60
2018-09-11T10:49:49.719Z,44.00
2018-09-11T10:52:24.072Z,44.50
2018-09-11T10:54:58.455Z,44.30
2018-09-11T10:57:32.846Z,43.30
2018-09-11T11:00:07.362Z,43.70
2018-09-11T11:02:41.773Z,43.10
2018-09-11T11:05:16.231Z,43.30
2018-09-11T11:07:50.630Z,43.50
2018-09-11T11:10:25.102Z,43.90
2018-09-11T11:12:59.717Z,43.50
2018-09-11T11:15:34.772Z,42.10
2018-09-11T11:18:09.420Z,43.30
2018-09-11T11:20:43.799Z,43.50
2018-09-11T11:23:18.652Z,43.80
2018-09-11T11:25:53.138Z,43.20
2018-09-11T11:28:30.030Z,43.70
2018-09-11T11:31:06.799Z,43.90
2018-09-11T11:37:11.298Z,43.50
2018-09-11T11:39:50.355Z,43.50
2018-09-11T11:42:29.594Z,43.50
2018-09-11T11:45:13.019Z,43.80
2018-09-11T11:47:54.433Z,42.90
2018-09-11T11:50:48.424Z,42.00
2018-09-11T11:56:36.751Z,40.50
2018-09-11T11:59:54.072Z,41.80
2018-09-11T12:02:38.159Z,41.30
2018-09-11T12:05:31.147Z,42.00
2018-09-11T12:08:15.892Z,41.40
2018-09-11T12:11:03.820Z,41.30
2018-09-11T12:13:55.885Z,41.30
2018-09-11T12:16:49.025Z,41.20
2018-09-11T12:19:24.628Z,40.30
2018-09-11T12:21:59.597Z,39.70
2018-09-11T12:24:33.991Z,39.10
2018-09-11T12:27:08.550Z,39.80
2018-09-11T12:29:42.917Z,39.40
2018-09-11T12:32:17.395Z,39.70
2018-09-11T12:34:51.786Z,39.20
2018-09-11T12:37:27.299Z,40.00
2018-09-11T12:40:02.869Z,40.10
2018-09-11T12:42:37.209Z,39.50
2018-09-11T12:45:11.588Z,39.70
2018-09-11T12:47:46.636Z,39.50
2018-09-11T12:50:20.788Z,39.80
2018-09-11T12:52:55.331Z,39.80
2018-09-11T12:55:29.680Z,39.70
2018-09-11T12:58:04.066Z,39.50
2018-09-11T13:00:38.470Z,39.00
2018-09-11T13:03:12.944Z,38.00
2018-09-11T13:05:47.555Z,38.50
2018-09-11T13:08:22.006Z,38.50
2018-09-11T13:10:56.447Z,38.90
2018-09-11T13:13:31.030Z,39.00
2018-09-11T13:16:05.449Z,38.40
2018-09-11T13:18:39.806Z,37.80
2018-09-11T13:21:14.169Z,38.40
2018-09-11T13:23:48.483Z,38.80
2018-09-11T13:26:22.847Z,39.30
2018-09-11T13:28:57.262Z,38.90
2018-09-11T13:31:31.583Z,39.10
2018-09-11T13:34:06.302Z,38.90
2018-09-11T13:36:40.725Z,39.00
2018-09-11T13:39:15.134Z,39.00
2018-09-11T13:41:49.511Z,38.90
2018-09-11T13:44:23.927Z,39.10
2018-09-11T13:46:58.951Z,39.30
2018-09-11T13:49:33.913Z,39.50
2018-09-11T13:52:08.266Z,39.30
2018-09-11T13:54:43.242Z,39.60
2018-09-11T13:57:17.714Z,39.80
2018-09-11T13:59:53.306Z,39.50
2018-09-11T14:02:28.871Z,39.70
2018-09-11T14:05:03.417Z,40.00
2018-09-11T14:07:38.021Z,39.60
2018-09-11T14:10:12.414Z,39.20
2018-09-11T14:12:46.769Z,39.10
2018-09-11T14:15:21.115Z,39.10
2018-09-11T14:17:55.927Z,38.80
2018-09-11T14:20:30.285Z,38.10
2018-09-11T14:23:04.723Z,38.00
2018-09-11T14:25:39.115Z,38.40
2018-09-11T14:28:13.767Z,38.10
2018-09-11T14:30:48.156Z,37.40
2018-09-11T14:33:22.566Z,38.50
2018-09-11T14:35:56.995Z,38.40
2018-09-11T14:38:31.385Z,38.10
2018-09-11T14:41:05.794Z,38.10
2018-09-11T14:43:40.156Z,38.90
2018-09-11T14:46:14.577Z,39.60
2018-09-11T14:48:49.854Z,40.10
2018-09-11T14:51:24.222Z,39.30
2018-09-11T14:53:58.602Z,39.40
2018-09-11T14:56:33.608Z,39.70
2018-09-11T14:59:07.994Z,39.50
2018-09-11T15:01:42.352Z,39.60
2018-09-11T15:04:16.814Z,39.20
2018-09-11T15:06:51.178Z,39.00
2018-09-11T15:09:25.526Z,39.00
2018-09-11T15:12:04.945Z,39.20
2018-09-11T15:14:40.743Z,39.80
2018-09-11T15:17:15.846Z,39.60
2018-09-11T15:19:50.183Z,39.70
2018-09-11T15:22:24.776Z,40.00
2018-09-11T15:24:59.238Z,40.40
2018-09-11T15:27:33.571Z,40.50
2018-09-11T15:30:07.940Z,40.30
2018-09-11T15:32:43.002Z,40.50
2018-09-11T15:35:17.338Z,40.20
2018-09-11T15:37:51.701Z,40.40
2018-09-11T15:40:26.031Z,41.00
2018-09-11T15:43:00.377Z,40.60
2018-09-11T15:45:34.739Z,40.50
2018-09-11T15:48:09.140Z,41.00
2018-09-11T15:50:43.489Z,41.60
2018-09-11T15:53:17.807Z,41.20
2018-09-11T15:55:52.340Z,41.30
2018-09-11T15:58:26.625Z,41.00
2018-09-11T16:01:01.027Z,41.30
2018-09-11T16:03:35.351Z,41.50
2018-09-11T16:06:09.722Z,41.60
2018-09-11T16:08:44.098Z,41.90
2018-09-11T16:11:18.430Z,42.00
2018-09-11T16:13:52.755Z,42.60
2018-09-11T16:16:27.054Z,42.10
2018-09-11T16:19:01.415Z,42.20
2018-09-11T16:21:35.757Z,42.40
2018-09-11T16:24:10.074Z,42.50
2018-09-11T16:26:44.431Z,43.10
2018-09-11T16:29:18.717Z,43.30
2018-09-11T16:31:53.077Z,43.20
2018-09-11T16:34:27.425Z,43.40
2018-09-11T16:37:01.745Z,43.30
2018-09-11T16:39:36.050Z,43.40
2018-09-11T16:42:10.389Z,43.40
2018-09-11T16:44:44.809Z,43.70
2018-09-11T16:47:19.490Z,43.70
2018-09-11T16:49:53.813Z,43.80
2018-09-11T16:52:28.106Z,43.80
2018-09-11T16:55:02.425Z,44.00
2018-09-11T16:57:36.756Z,44.20
2018-09-11T17:00:11.122Z,44.40
2018-09-11T17:02:45.486Z,44.50
2018-09-11T17:05:19.850Z,44.60
2018-09-11T17:07:54.153Z,44.50
2018-09-11T17:10:28.571Z,44.60
2018-09-11T17:13:08.003Z,44.60
2018-09-11T17:15:42.381Z,44.70
2018-09-11T17:18:16.742Z,44.90
2018-09-11T17:20:51.057Z,44.90
2018-09-11T17:23:25.399Z,44.90
2018-09-11T17:25:59.769Z,44.80
2018-09-11T17:28:34.137Z,44.80
2018-09-11T17:31:08.733Z,44.80
2018-09-11T17:33:43.071Z,44.80
2018-09-11T17:36:17.960Z,44.90
2018-09-11T17:38:52.705Z,45.00
2018-09-11T17:41:27.050Z,45.10
2018-09-11T17:44:01.402Z,45.20
2018-09-11T17:46:35.870Z,45.40
2018-09-11T17:49:10.321Z,45.50
2018-09-11T17:51:44.673Z,45.90
2018-09-11T17:54:19.067Z,45.90
2018-09-11T17:56:53.641Z,46.10
2018-09-11T17:59:28.473Z,46.30
2018-09-11T18:02:02.777Z,46.60
2018-09-11T18:04:37.162Z,46.90
2018-09-11T18:07:11.531Z,47.10
2018-09-11T18:09:45.922Z,47.10
2018-09-11T18:12:20.382Z,47.20
2018-09-11T18:15:11.027Z,47.00
2018-09-11T18:17:45.603Z,47.20
2018-09-11T18:20:21.018Z,47.20
2018-09-11T18:22:55.618Z,47.30
2018-09-11T18:25:30.399Z,47.50
2018-09-11T18:28:10.288Z,47.80
2018-09-11T18:30:44.900Z,48.00
2018-09-11T18:33:19.283Z,48.30
2018-09-11T18:35:53.891Z,48.40
2018-09-11T18:38:38.131Z,48.50
2018-09-11T18:41:16.255Z,48.60
2018-09-11T18:44:05.229Z,48.70
2018-09-11T18:50:41.316Z,49.40
2018-09-11T18:53:17.771Z,48.80
2018-09-11T18:55:52.378Z,48.90
2018-09-11T18:58:26.799Z,49.20
2018-09-11T19:01:01.214Z,49.30
2018-09-11T19:03:35.590Z,49.30
2018-09-11T19:06:14.403Z,49.30
2018-09-11T19:08:48.796Z,49.40
2018-09-11T19:11:23.158Z,49.60
2018-09-11T19:13:57.527Z,49.80
2018-09-11T19:16:31.933Z,49.90
2018-09-11T19:19:06.550Z,50.00
2018-09-11T19:21:40.921Z,50.10
2018-09-11T19:24:15.300Z,50.30
2018-09-11T19:26:49.730Z,50.40
2018-09-11T19:29:24.152Z,50.60
2018-09-11T19:31:58.517Z,50.60
2018-09-11T19:34:32.864Z,51.30
2018-09-11T19:37:07.255Z,50.70
2018-09-11T19:39:41.637Z,50.70
2018-09-11T19:42:16.052Z,50.90
2018-09-11T19:44:50.387Z,50.90
2018-09-11T19:47:24.742Z,51.10
2018-09-11T19:49:59.077Z,51.10
2018-09-11T19:52:33.987Z,51.20
2018-09-11T19:55:08.480Z,51.40
2018-09-11T19:57:42.883Z,51.60
2018-09-11T20:00:17.215Z,51.70
2018-09-11T20:02:51.636Z,51.80
2018-09-11T20:05:26.027Z,51.90
2018-09-11T20:08:00.387Z,52.00
2018-09-11T20:10:34.751Z,52.30
2018-09-11T20:13:09.112Z,52.30
2018-09-11T20:15:43.462Z,52.40
2018-09-11T20:18:17.787Z,52.50
2018-09-11T20:20:52.206Z,52.70
2018-09-11T20:23:26.632Z,52.90
2018-09-11T20:26:00.961Z,52.90
2018-09-11T20:28:35.334Z,53.00
2018-09-11T20:31:09.682Z,53.00
2018-09-11T20:33:44.055Z,52.90
2018-09-11T20:36:18.418Z,53.10
2018-09-11T20:38:52.771Z,53.20
2018-09-11T20:41:27.172Z,53.20
2018-09-11T20:44:01.566Z,53.20
2018-09-11T20:46:35.937Z,53.40
2018-09-11T20:49:10.300Z,53.40
2018-09-11T20:51:44.701Z,53.40
2018-09-11T20:54:19.036Z,53.50
2018-09-11T20:56:53.377Z,53.70
2018-09-11T20:59:27.715Z,53.80
2018-09-11T21:02:02.065Z,53.60
2018-09-11T21:04:36.507Z,53.80
2018-09-11T21:07:10.879Z,53.90
2018-09-11T21:09:45.230Z,54.20
2018-09-11T21:12:19.590Z,54.20
2018-09-11T21:14:54.002Z,54.10
2018-09-11T21:17:28.422Z,54.20
2018-09-11T21:20:02.794Z,54.30
2018-09-11T21:22:37.159Z,54.60
2018-09-11T21:25:11.607Z,54.60
2018-09-11T21:27:45.998Z,54.50
2018-09-11T21:30:20.415Z,54.50
2018-09-11T21:32:54.752Z,54.50
2018-09-11T21:35:29.101Z,54.80
2018-09-11T21:38:03.511Z,54.90
2018-09-11T21:40:37.890Z,54.90
2018-09-11T21:43:12.261Z,55.00
2018-09-11T21:45:46.611Z,55.10
2018-09-11T21:48:21.022Z,55.20
2018-09-11T21:50:55.462Z,55.20
2018-09-11T21:53:29.855Z,55.30
2018-09-11T21:56:04.235Z,55.30
2018-09-11T21:58:38.630Z,55.40
2018-09-11T22:01:18.059Z,55.30
2018-09-11T22:03:52.375Z,55.40
2018-09-11T22:06:26.745Z,55.40
2018-09-11T22:09:01.082Z,55.60
2018-09-11T22:11:35.436Z,55.50
2018-09-11T22:14:10.340Z,55.60
2018-09-11T22:16:44.830Z,55.70
2018-09-11T22:19:19.183Z,55.80
2018-09-11T22:21:53.546Z,55.80
2018-09-11T22:24:27.936Z,55.90
2018-09-11T22:27:02.323Z,55.80
2018-09-11T22:29:36.667Z,56.00
2018-09-11T22:32:11.033Z,56.00
2018-09-11T22:34:45.400Z,56.10
2018-09-11T22:37:19.900Z,56.00
2018-09-11T22:39:54.273Z,56.00
2018-09-11T22:42:28.631Z,56.00
2018-09-11T22:45:03.022Z,56.00
2018-09-11T22:47:37.386Z,56.00
2018-09-11T22:50:11.865Z,56.00
2018-09-11T22:52:46.181Z,56.00
2018-09-11T22:55:20.521Z,56.00
2018-09-11T22:57:54.886Z,56.00
2018-09-11T23:00:29.279Z,56.30
2018-09-11T23:03:03.739Z,56.40
2018-09-11T23:05:38.082Z,56.30
2018-09-11T23:08:12.500Z,56.30
2018-09-11T23:10:46.980Z,56.40
2018-09-11T23:13:21.491Z,56.40
2018-09-11T23:15:55.897Z,56.50
2018-09-11T23:18:30.285Z,56.50
2018-09-11T23:21:04.612Z,56.60
2018-09-11T23:23:38.989Z,56.80
2018-09-11T23:26:13.357Z,56.60
2018-09-11T23:28:47.736Z,56.60
2018-09-11T23:31:22.208Z,56.60
2018-09-11T23:33:56.610Z,56.60
2018-09-11T23:36:30.949Z,57.10
2018-09-11T23:39:07.134Z,56.70
2018-09-11T23:41:41.550Z,57.30
2018-09-11T23:44:15.963Z,56.70
2018-09-11T23:46:50.414Z,56.70
2018-09-11T23:49:24.787Z,56.80
2018-09-11T23:51:59.114Z,56.80
2018-09-11T23:54:33.469Z,56.90
2018-09-11T23:57:07.802Z,56.90
2018-09-11T23:59:42.587Z,57.00
